createdAt,value
2023-05-17T00:02:08.085Z,17.92
2023-05-17T00:04:35.044Z,16.75
2023-05-17T00:07:02.151Z,11.85
2023-05-17T00:09:29.025Z,15.80
2023-05-17T00:11:55.854Z,15.50
2023-05-17T00:14:23.049Z,14.93
2023-05-17T00:16:50.565Z,21.30
2023-05-17T00:19:17.486Z,20.05
2023-05-17T00:21:44.518Z,15.50
2023-05-17T00:24:11.569Z,20.15
2023-05-17T00:26:38.405Z,16.70
2023-05-17T00:29:05.514Z,11.10
2023-05-17T00:31:32.360Z,15.13
2023-05-17T00:33:59.288Z,14.63
2023-05-17T00:36:26.302Z,12.77
2023-05-17T00:38:53.188Z,19.30
2023-05-17T00:41:20.093Z,20.02
2023-05-17T00:43:47.018Z,11.23
2023-05-17T00:46:14.030Z,12.67
2023-05-17T00:48:41.419Z,16.73
2023-05-17T00:51:08.657Z,16.67
2023-05-17T00:53:37.235Z,16.35
2023-05-17T00:56:05.089Z,14.82
2023-05-17T00:58:33.864Z,15.25
2023-05-17T01:01:01.733Z,12.48
2023-05-17T01:03:28.883Z,23.10
2023-05-17T01:05:56.170Z,19.98
2023-05-17T01:08:23.160Z,14.55
2023-05-17T01:10:57.690Z,10.68
2023-05-17T01:13:47.423Z,18.98
2023-05-17T01:16:21.732Z,12.85
2023-05-17T01:19:35.485Z,14.27
2023-05-17T01:22:36.327Z,12.68
2023-05-17T01:25:36.404Z,14.27
2023-05-17T01:28:05.419Z,16.38
2023-05-17T01:30:33.913Z,20.35
2023-05-17T01:33:02.767Z,17.73
2023-05-17T01:35:30.021Z,19.67
2023-05-17T01:37:57.059Z,18.98
2023-05-17T01:40:24.469Z,17.37
2023-05-17T01:42:58.010Z,20.60
2023-05-17T01:45:38.898Z,14.32
2023-05-17T01:48:20.808Z,20.60
2023-05-17T01:50:54.571Z,18.97
2023-05-17T01:53:51.826Z,22.58
2023-05-17T01:56:27.728Z,20.08
2023-05-17T01:58:56.715Z,24.77
2023-05-17T02:01:28.703Z,17.05
2023-05-17T02:03:55.823Z,18.38
2023-05-17T02:06:23.273Z,22.10
2023-05-17T02:08:50.186Z,20.83
2023-05-17T02:11:17.305Z,20.70
2023-05-17T02:13:44.194Z,23.40
2023-05-17T02:16:11.166Z,17.67
2023-05-17T02:18:38.342Z,25.17
2023-05-17T02:21:06.698Z,22.67
2023-05-17T02:23:33.645Z,21.25
2023-05-17T02:26:00.718Z,16.35
2023-05-17T02:28:27.733Z,19.40
2023-05-17T02:30:56.544Z,22.50
2023-05-17T02:33:23.812Z,22.70
2023-05-17T02:35:50.892Z,21.50
2023-05-17T02:38:19.711Z,28.48
2023-05-17T02:40:46.628Z,21.65
2023-05-17T02:43:13.496Z,17.80
2023-05-17T02:45:40.357Z,20.30
2023-05-17T02:48:07.375Z,25.63
2023-05-17T02:50:34.306Z,21.80
2023-05-17T02:53:01.286Z,21.88
2023-05-17T02:55:28.498Z,23.58
2023-05-17T02:57:55.827Z,19.25
2023-05-17T03:00:23.686Z,16.95
2023-05-17T03:02:51.130Z,24.05
2023-05-17T03:05:18.408Z,26.92
2023-05-17T03:07:49.379Z,19.83
2023-05-17T03:10:16.983Z,19.05
2023-05-17T03:12:45.901Z,22.02
2023-05-17T03:15:14.355Z,16.83
2023-05-17T03:17:41.451Z,18.70
2023-05-17T03:20:10.035Z,20.55
2023-05-17T03:22:37.058Z,17.73
2023-05-17T03:25:05.326Z,21.23
2023-05-17T03:27:33.719Z,21.55
2023-05-17T03:30:01.851Z,22.92
2023-05-17T03:32:29.553Z,21.55
2023-05-17T03:34:56.567Z,25.85
2023-05-17T03:37:23.782Z,23.05
2023-05-17T03:39:50.692Z,16.23
2023-05-17T03:42:17.828Z,20.25
2023-05-17T03:44:44.792Z,17.13
2023-05-17T03:47:12.946Z,18.73
2023-05-17T03:49:40.494Z,17.35
2023-05-17T03:52:07.574Z,20.13
2023-05-17T03:54:34.491Z,14.95
2023-05-17T03:57:01.447Z,13.85
2023-05-17T03:59:28.714Z,16.98
2023-05-17T04:01:56.298Z,13.32
2023-05-17T04:04:23.484Z,17.23
2023-05-17T04:06:50.520Z,16.65
2023-05-17T04:09:17.441Z,17.13
2023-05-17T04:11:44.343Z,24.23
2023-05-17T04:14:12.271Z,20.27
2023-05-17T04:16:39.560Z,23.85
2023-05-17T04:19:06.748Z,16.80
2023-05-17T04:21:33.720Z,18.00
2023-05-17T04:24:01.600Z,17.27
2023-05-17T04:26:29.175Z,16.60
2023-05-17T04:28:56.363Z,15.30
2023-05-17T04:31:23.694Z,22.98
2023-05-17T04:33:50.720Z,18.50
2023-05-17T04:36:17.805Z,25.55
2023-05-17T04:38:45.421Z,19.30
2023-05-17T04:41:15.136Z,16.75
2023-05-17T04:43:43.512Z,17.67
2023-05-17T04:46:18.453Z,25.35
2023-05-17T04:48:45.329Z,20.27
2023-05-17T04:51:12.264Z,21.42
2023-05-17T04:53:39.827Z,23.17
2023-05-17T04:56:11.169Z,15.57
2023-05-17T04:58:38.049Z,17.55
2023-05-17T05:01:05.940Z,20.67
2023-05-17T05:03:33.774Z,22.90
2023-05-17T05:06:00.881Z,20.55
2023-05-17T05:08:28.886Z,19.05
2023-05-17T05:10:56.933Z,19.65
2023-05-17T05:13:25.444Z,24.42
2023-05-17T05:15:53.832Z,18.80
2023-05-17T05:18:20.849Z,15.07
2023-05-17T05:20:49.340Z,17.88
2023-05-17T05:23:18.592Z,20.57
2023-05-17T05:25:47.729Z,20.17
2023-05-17T05:28:14.831Z,19.45
2023-05-17T05:30:42.273Z,17.88
2023-05-17T05:33:09.408Z,22.07
2023-05-17T05:35:36.997Z,15.90
2023-05-17T05:38:03.970Z,23.92
2023-05-17T05:40:31.673Z,17.33
2023-05-17T05:42:58.978Z,21.98
2023-05-17T05:45:25.953Z,19.98
2023-05-17T05:47:55.915Z,15.93
2023-05-17T05:50:23.184Z,17.13
2023-05-17T05:52:56.313Z,18.85
2023-05-17T05:55:30.867Z,20.65
2023-05-17T05:57:57.915Z,18.60
2023-05-17T06:00:25.923Z,15.88
2023-05-17T06:02:53.957Z,19.52
2023-05-17T06:05:21.039Z,17.00
2023-05-17T06:07:48.188Z,20.65
2023-05-17T06:10:15.148Z,21.20
2023-05-17T06:12:42.097Z,21.25
2023-05-17T06:15:09.431Z,22.50
2023-05-17T06:17:36.496Z,18.17
2023-05-17T06:20:03.665Z,18.15
2023-05-17T06:22:30.609Z,13.27
2023-05-17T06:24:57.956Z,13.93
2023-05-17T06:27:24.893Z,17.88
2023-05-17T06:29:52.073Z,16.77
2023-05-17T06:32:19.249Z,15.82
2023-05-17T06:34:46.295Z,15.68
2023-05-17T06:37:13.240Z,13.18
2023-05-17T06:39:41.109Z,13.77
2023-05-17T06:42:08.016Z,15.20
2023-05-17T06:44:36.321Z,12.73
2023-05-17T06:47:03.319Z,12.68
2023-05-17T06:49:30.367Z,15.20
2023-05-17T06:52:03.021Z,12.07
2023-05-17T06:54:33.168Z,10.65
2023-05-17T06:57:03.687Z,11.77
2023-05-17T06:59:30.560Z,16.45
2023-05-17T07:01:57.503Z,13.70
2023-05-17T07:04:24.481Z,13.15
2023-05-17T07:06:51.537Z,14.80
2023-05-17T07:09:20.557Z,14.93
2023-05-17T07:11:48.134Z,11.43
2023-05-17T07:14:15.111Z,16.02
2023-05-17T07:16:42.646Z,10.60
2023-05-17T07:19:09.880Z,11.30
2023-05-17T07:21:36.926Z,12.57
2023-05-17T07:24:03.965Z,13.10
2023-05-17T07:26:30.945Z,12.73
2023-05-17T07:28:58.174Z,13.53
2023-05-17T07:31:25.243Z,10.40
2023-05-17T07:33:52.575Z,7.63
2023-05-17T07:36:19.688Z,11.77
2023-05-17T07:38:46.667Z,12.23
2023-05-17T07:41:16.904Z,17.42
2023-05-17T07:43:46.019Z,11.65
2023-05-17T07:46:12.941Z,10.47
2023-05-17T07:48:40.011Z,9.18
2023-05-17T07:51:07.120Z,11.30
2023-05-17T07:53:33.962Z,13.27
2023-05-17T07:56:03.635Z,6.47
2023-05-17T07:58:30.873Z,9.20
2023-05-17T08:00:57.693Z,8.93
2023-05-17T08:03:24.548Z,10.93
2023-05-17T08:05:51.552Z,10.77
2023-05-17T08:08:18.704Z,7.93
2023-05-17T08:10:45.957Z,6.53
2023-05-17T08:13:12.878Z,8.95
2023-05-17T08:15:39.762Z,9.95
2023-05-17T08:18:06.884Z,6.75
2023-05-17T08:20:33.761Z,5.90
2023-05-17T08:23:00.676Z,9.07
2023-05-17T08:25:27.838Z,7.28
2023-05-17T08:27:54.827Z,5.57
2023-05-17T08:32:56.641Z,4.78
2023-05-17T08:35:26.301Z,10.73
2023-05-17T08:37:54.711Z,5.57
2023-05-17T08:40:22.216Z,4.38
2023-05-17T08:42:50.923Z,8.55
2023-05-17T08:45:18.994Z,6.47
2023-05-17T08:47:46.662Z,10.18
2023-05-17T08:50:14.466Z,8.23
2023-05-17T08:52:45.528Z,10.00
2023-05-17T08:55:16.567Z,7.07
2023-05-17T08:57:44.789Z,8.52
2023-05-17T09:00:16.072Z,6.15
2023-05-17T09:02:45.103Z,6.37
2023-05-17T09:05:14.277Z,9.70
2023-05-17T09:07:42.423Z,9.07
2023-05-17T09:10:10.033Z,10.13
2023-05-17T09:12:37.237Z,7.50
2023-05-17T09:15:18.430Z,6.13
2023-05-17T09:17:55.386Z,6.15
2023-05-17T09:20:24.929Z,8.83
2023-05-17T09:22:52.774Z,10.20
2023-05-17T09:25:24.188Z,7.38
2023-05-17T09:27:54.377Z,7.80
2023-05-17T09:30:29.989Z,9.00
2023-05-17T09:32:57.849Z,5.88
2023-05-17T09:35:31.741Z,7.95
2023-05-17T09:38:09.666Z,6.90
2023-05-17T09:40:40.343Z,5.47
2023-05-17T09:43:07.986Z,9.00
2023-05-17T09:45:38.943Z,8.10
2023-05-17T09:48:16.770Z,7.10
2023-05-17T09:50:45.516Z,7.03
2023-05-17T09:53:40.136Z,7.03
2023-05-17T09:56:07.462Z,7.45
2023-05-17T09:58:37.111Z,6.53
2023-05-17T10:01:08.621Z,6.50
2023-05-17T10:03:39.173Z,5.95
2023-05-17T10:08:38.565Z,3.95
2023-05-17T10:11:10.617Z,8.60
2023-05-17T10:14:00.776Z,3.40
2023-05-17T10:16:29.099Z,5.90
2023-05-17T10:18:57.022Z,6.60
2023-05-17T10:21:24.392Z,9.05
2023-05-17T10:23:51.912Z,4.57
2023-05-17T10:26:20.845Z,3.58
2023-05-17T10:28:52.166Z,8.27
2023-05-17T10:31:20.523Z,4.75
2023-05-17T10:33:50.483Z,6.57
2023-05-17T10:36:18.204Z,6.68
2023-05-17T10:38:46.221Z,8.98
2023-05-17T10:41:15.043Z,6.68
2023-05-17T10:43:43.388Z,3.55
2023-05-17T10:46:17.958Z,5.55
2023-05-17T10:48:45.149Z,7.32
2023-05-17T10:51:12.227Z,7.35
2023-05-17T10:54:09.152Z,7.95
2023-05-17T10:56:40.801Z,5.70
2023-05-17T10:59:28.303Z,4.90
2023-05-17T11:02:03.574Z,5.78
2023-05-17T11:04:37.807Z,5.00
2023-05-17T11:07:27.094Z,8.38
2023-05-17T11:10:00.488Z,4.38
2023-05-17T11:12:35.394Z,8.07
2023-05-17T11:15:11.283Z,6.00
2023-05-17T11:17:44.584Z,8.60
2023-05-17T11:20:27.702Z,7.53
2023-05-17T11:23:16.106Z,4.40
2023-05-17T11:25:43.029Z,9.70
2023-05-17T11:28:19.377Z,5.07
2023-05-17T11:30:52.085Z,6.13
2023-05-17T11:33:33.226Z,7.60
2023-05-17T11:36:06.942Z,6.07
2023-05-17T11:38:34.692Z,7.13
2023-05-17T11:43:52.208Z,14.17
2023-05-17T11:46:21.849Z,6.72
2023-05-17T11:48:53.944Z,4.40
2023-05-17T11:51:24.599Z,6.43
2023-05-17T11:53:55.427Z,9.60
2023-05-17T11:56:35.531Z,7.38
2023-05-17T11:59:10.342Z,6.22
2023-05-17T12:01:46.008Z,5.68
2023-05-17T12:04:13.524Z,5.15
2023-05-17T12:06:40.932Z,5.47
2023-05-17T12:09:11.091Z,11.50
2023-05-17T12:11:39.631Z,6.28
2023-05-17T12:14:07.325Z,10.32
2023-05-17T12:16:36.568Z,9.50
2023-05-17T12:19:03.809Z,8.48
2023-05-17T12:21:30.906Z,6.40
2023-05-17T12:23:57.808Z,6.65
2023-05-17T12:26:24.845Z,6.82
2023-05-17T12:28:57.713Z,6.68
2023-05-17T12:31:32.434Z,10.05
2023-05-17T12:34:02.247Z,9.82
2023-05-17T12:36:31.521Z,5.82
2023-05-17T12:38:58.564Z,5.27
2023-05-17T12:41:26.607Z,6.97
2023-05-17T12:44:06.275Z,6.00
2023-05-17T12:46:40.686Z,5.85
2023-05-17T12:49:09.655Z,8.35
2023-05-17T12:51:44.776Z,6.63
2023-05-17T12:54:13.043Z,9.85
2023-05-17T12:56:46.637Z,9.15
2023-05-17T12:59:18.195Z,8.52
2023-05-17T13:01:46.083Z,9.45
2023-05-17T13:04:14.387Z,7.22
2023-05-17T13:07:03.291Z,5.50
2023-05-17T13:09:32.091Z,7.90
2023-05-17T13:12:01.121Z,14.27
2023-05-17T13:14:44.440Z,10.32
2023-05-17T13:17:19.275Z,7.97
2023-05-17T13:19:46.460Z,10.45
2023-05-17T13:22:15.068Z,10.05
2023-05-17T13:24:44.169Z,6.25
2023-05-17T13:27:11.908Z,9.18
2023-05-17T13:29:41.765Z,6.63
2023-05-17T13:32:10.679Z,7.82
2023-05-17T13:34:37.878Z,7.90
2023-05-17T13:37:06.300Z,9.48
2023-05-17T13:39:35.061Z,12.95
2023-05-17T13:42:02.093Z,6.85
2023-05-17T13:44:29.155Z,8.60
2023-05-17T13:46:56.224Z,11.52
2023-05-17T13:49:23.348Z,8.82
2023-05-17T13:51:50.252Z,10.88
2023-05-17T13:54:17.436Z,23.50
2023-05-17T13:56:44.390Z,11.80
2023-05-17T13:59:11.279Z,9.77
2023-05-17T14:01:38.230Z,9.57
2023-05-17T14:04:05.818Z,9.27
2023-05-17T14:06:32.864Z,7.88
2023-05-17T14:09:00.869Z,9.80
2023-05-17T14:11:28.038Z,8.45
2023-05-17T14:13:54.990Z,11.60
2023-05-17T14:16:23.019Z,9.65
2023-05-17T14:18:50.311Z,4.47
2023-05-17T14:21:17.915Z,12.90
2023-05-17T14:23:44.982Z,10.50
2023-05-17T14:26:11.979Z,5.97
2023-05-17T14:28:39.097Z,8.93
2023-05-17T14:31:07.570Z,9.10
2023-05-17T14:33:35.039Z,7.30
2023-05-17T14:36:03.690Z,5.97
2023-05-17T14:38:30.783Z,11.23
2023-05-17T14:40:59.066Z,8.85
2023-05-17T14:43:26.310Z,8.00
2023-05-17T14:45:53.270Z,6.15
2023-05-17T14:48:20.356Z,5.13
2023-05-17T14:50:47.285Z,12.27
2023-05-17T14:53:14.185Z,9.02
2023-05-17T14:55:41.882Z,10.52
2023-05-17T14:58:09.047Z,9.17
2023-05-17T15:00:36.120Z,12.10
2023-05-17T15:03:03.255Z,7.72
2023-05-17T15:05:30.755Z,8.60
2023-05-17T15:07:58.198Z,9.80
2023-05-17T15:10:25.086Z,8.37
2023-05-17T15:12:52.626Z,9.50
2023-05-17T15:15:22.229Z,11.00
2023-05-17T15:17:49.428Z,8.02
2023-05-17T15:20:16.984Z,12.73
2023-05-17T15:22:44.561Z,7.03
2023-05-17T15:25:11.555Z,10.98
2023-05-17T15:27:38.397Z,10.23
2023-05-17T15:30:05.906Z,7.45
2023-05-17T15:32:34.038Z,7.40
2023-05-17T15:35:01.052Z,10.18
2023-05-17T15:37:28.280Z,8.55
2023-05-17T15:39:55.169Z,6.75
2023-05-17T15:42:22.117Z,11.52
2023-05-17T15:44:48.935Z,6.18
2023-05-17T15:47:16.054Z,9.70
2023-05-17T15:49:42.934Z,8.82
2023-05-17T15:52:09.846Z,9.07
2023-05-17T15:54:36.670Z,12.35
2023-05-17T15:57:03.667Z,7.28
2023-05-17T15:59:30.594Z,8.67
2023-05-17T16:01:57.524Z,9.10
2023-05-17T16:04:24.802Z,9.40
2023-05-17T16:06:52.065Z,7.95
2023-05-17T16:09:19.085Z,5.15
2023-05-17T16:11:46.303Z,9.10
2023-05-17T16:14:13.234Z,7.88
2023-05-17T16:16:40.228Z,7.95
2023-05-17T16:19:07.131Z,7.28
2023-05-17T16:21:35.557Z,11.77
2023-05-17T16:24:04.249Z,8.02
2023-05-17T16:26:31.051Z,11.15
2023-05-17T16:28:58.702Z,5.85
2023-05-17T16:31:25.763Z,11.85
2023-05-17T16:33:53.176Z,8.18
2023-05-17T16:36:22.768Z,11.45
2023-05-17T16:38:50.016Z,7.97
2023-05-17T16:41:16.906Z,6.80
2023-05-17T16:43:43.835Z,7.10
2023-05-17T16:46:11.982Z,7.28
2023-05-17T16:48:38.822Z,6.30
2023-05-17T16:51:05.888Z,7.10
2023-05-17T16:53:32.862Z,9.13
2023-05-17T16:55:59.932Z,7.80
2023-05-17T16:58:26.808Z,12.75
2023-05-17T17:00:53.693Z,10.63
2023-05-17T17:03:20.680Z,9.60
2023-05-17T17:05:47.597Z,8.07
2023-05-17T17:08:14.414Z,14.48
2023-05-17T17:10:41.441Z,12.10
2023-05-17T17:13:08.439Z,9.27
2023-05-17T17:15:35.682Z,12.32
2023-05-17T17:18:02.665Z,12.15
2023-05-17T17:20:30.088Z,8.55
2023-05-17T17:22:57.458Z,8.25
2023-05-17T17:25:24.756Z,12.00
2023-05-17T17:27:53.109Z,6.07
2023-05-17T17:30:20.318Z,8.52
2023-05-17T17:32:47.472Z,11.82
2023-05-17T17:35:14.538Z,10.65
2023-05-17T17:37:41.425Z,9.93
2023-05-17T17:40:09.057Z,11.25
2023-05-17T17:42:35.889Z,10.32
2023-05-17T17:45:02.745Z,12.10
2023-05-17T17:47:29.606Z,10.80
2023-05-17T17:49:56.454Z,8.43
2023-05-17T17:52:23.569Z,10.30
2023-05-17T17:54:50.583Z,9.85
2023-05-17T17:57:18.996Z,12.52
2023-05-17T17:59:45.917Z,11.82
2023-05-17T18:02:12.855Z,11.73
2023-05-17T18:04:40.679Z,10.23
2023-05-17T18:07:07.879Z,10.70
2023-05-17T18:09:34.733Z,13.33
2023-05-17T18:12:01.610Z,10.30
2023-05-17T18:14:28.628Z,12.00
2023-05-17T18:16:55.671Z,7.32
2023-05-17T18:19:22.855Z,9.00
2023-05-17T18:21:50.735Z,8.87
2023-05-17T18:24:17.648Z,11.25
2023-05-17T18:26:44.712Z,8.83
2023-05-17T18:29:11.607Z,8.10
2023-05-17T18:31:38.530Z,9.43
2023-05-17T18:34:05.571Z,6.07
2023-05-17T18:36:32.451Z,11.63
2023-05-17T18:39:00.949Z,7.07
2023-05-17T18:41:28.088Z,6.73
2023-05-17T18:43:55.920Z,10.18
2023-05-17T18:46:23.065Z,12.43
2023-05-17T18:48:49.996Z,12.82
2023-05-17T18:51:16.902Z,11.80
2023-05-17T18:53:44.308Z,15.93
2023-05-17T18:56:12.550Z,8.88
2023-05-17T18:58:39.458Z,8.65
2023-05-17T19:01:06.612Z,9.73
2023-05-17T19:03:33.709Z,12.10
2023-05-17T19:06:00.611Z,10.27
2023-05-17T19:08:27.749Z,15.93
2023-05-17T19:10:54.626Z,12.93
2023-05-17T19:13:21.646Z,9.15
2023-05-17T19:15:49.404Z,8.97
2023-05-17T19:18:16.265Z,10.20
2023-05-17T19:20:43.167Z,12.43
2023-05-17T19:23:10.312Z,7.50
2023-05-17T19:25:37.182Z,6.90
2023-05-17T19:28:04.135Z,10.57
2023-05-17T19:30:33.001Z,11.18
2023-05-17T19:33:00.504Z,16.63
2023-05-17T19:35:27.368Z,14.65
2023-05-17T19:37:56.648Z,16.73
2023-05-17T19:40:24.400Z,7.63
2023-05-17T19:42:51.470Z,11.02
2023-05-17T19:45:18.308Z,10.45
2023-05-17T19:47:45.242Z,9.55
2023-05-17T19:50:12.360Z,6.70
2023-05-17T19:52:39.769Z,6.93
2023-05-17T19:55:06.975Z,10.15
2023-05-17T19:57:33.991Z,9.95
2023-05-17T20:00:00.882Z,8.00
2023-05-17T20:02:27.868Z,7.32
2023-05-17T20:04:55.022Z,10.35
2023-05-17T20:07:25.739Z,8.15
2023-05-17T20:09:53.467Z,7.57
2023-05-17T20:12:20.619Z,7.60
2023-05-17T20:14:47.530Z,9.88
2023-05-17T20:17:14.452Z,7.63
2023-05-17T20:19:41.292Z,7.10
2023-05-17T20:22:08.223Z,6.97
2023-05-17T20:24:35.265Z,9.65
2023-05-17T20:27:02.578Z,7.35
2023-05-17T20:29:29.656Z,12.82
2023-05-17T20:31:56.757Z,10.50
2023-05-17T20:34:28.123Z,12.77
2023-05-17T20:36:58.456Z,9.57
2023-05-17T20:39:29.484Z,7.85
2023-05-17T20:41:58.174Z,5.10
2023-05-17T20:44:26.039Z,11.48
2023-05-17T20:46:54.861Z,8.13
2023-05-17T20:49:21.890Z,6.97
2023-05-17T20:51:48.903Z,9.18
2023-05-17T20:54:15.922Z,8.43
2023-05-17T20:56:42.837Z,10.90
2023-05-17T20:59:09.679Z,4.30
2023-05-17T21:01:37.336Z,14.73
2023-05-17T21:04:04.520Z,11.32
2023-05-17T21:06:32.866Z,10.80
2023-05-17T21:09:02.460Z,9.75
2023-05-17T21:11:30.188Z,10.70
2023-05-17T21:14:00.246Z,7.47
2023-05-17T21:16:29.978Z,8.27
2023-05-17T21:18:56.990Z,7.32
2023-05-17T21:21:23.917Z,8.07
2023-05-17T21:23:51.901Z,7.20
2023-05-17T21:26:18.922Z,8.95
2023-05-17T21:28:45.943Z,7.90
2023-05-17T21:31:13.330Z,11.43
2023-05-17T21:33:40.378Z,8.48
2023-05-17T21:36:07.330Z,7.20
2023-05-17T21:38:34.301Z,8.45
2023-05-17T21:41:01.233Z,7.97
2023-05-17T21:43:28.058Z,8.35
2023-05-17T21:45:54.909Z,6.47
2023-05-17T21:48:21.861Z,8.10
2023-05-17T21:50:49.966Z,8.68
2023-05-17T21:53:16.831Z,8.77
2023-05-17T21:55:56.929Z,8.88
2023-05-17T21:58:28.771Z,8.30
2023-05-17T22:00:56.207Z,8.65
2023-05-17T22:03:23.273Z,6.65
2023-05-17T22:05:51.032Z,7.40
2023-05-17T22:08:17.991Z,11.25
2023-05-17T22:10:44.867Z,12.95
2023-05-17T22:13:12.687Z,9.75
2023-05-17T22:15:41.640Z,11.02
2023-05-17T22:18:09.101Z,7.32
2023-05-17T22:20:35.946Z,9.63
2023-05-17T22:23:03.215Z,13.48
2023-05-17T22:25:30.180Z,10.00
2023-05-17T22:27:57.095Z,9.90
2023-05-17T22:30:24.051Z,8.95
2023-05-17T22:32:54.614Z,9.65
2023-05-17T22:35:21.761Z,5.65
2023-05-17T22:37:50.052Z,11.67
2023-05-17T22:40:17.371Z,8.17
2023-05-17T22:42:45.013Z,6.87
2023-05-17T22:45:15.148Z,10.05
2023-05-17T22:47:46.751Z,9.32
2023-05-17T22:50:15.607Z,6.10
2023-05-17T22:52:43.182Z,10.07
2023-05-17T22:55:10.664Z,8.77
2023-05-17T22:57:37.753Z,7.78
2023-05-17T23:00:11.595Z,6.35
2023-05-17T23:02:38.742Z,9.05
2023-05-17T23:05:06.074Z,9.10
2023-05-17T23:07:37.142Z,7.00
2023-05-17T23:10:09.085Z,5.00
2023-05-17T23:12:37.276Z,5.40
2023-05-17T23:15:05.209Z,7.53
2023-05-17T23:17:34.034Z,10.50
2023-05-17T23:20:02.141Z,6.88
2023-05-17T23:22:31.640Z,6.67
2023-05-17T23:24:58.936Z,9.60
2023-05-17T23:27:27.806Z,7.00
2023-05-17T23:29:55.228Z,12.32
2023-05-17T23:32:23.113Z,7.57
2023-05-17T23:34:50.410Z,8.98
2023-05-17T23:37:17.333Z,8.80
2023-05-17T23:39:44.237Z,6.17
2023-05-17T23:42:13.086Z,5.70
2023-05-17T23:44:42.939Z,5.60
2023-05-17T23:47:12.701Z,7.18
2023-05-17T23:49:39.671Z,6.07
2023-05-17T23:52:10.903Z,8.10
2023-05-17T23:54:42.099Z,6.50
2023-05-17T23:57:09.401Z,5.78
2023-05-17T23:59:36.807Z,4.80
